Time;durP1;ratioP1;P1;durP2;ratioP2;P2;SDS_P1;SDS_P2;PMS_P1;PMS_P2;Temp;Humidity;BMP_temperature;BMP_pressure;BME280_temperature;BME280_humidity;BME280_pressure;Samples;Min_cycle;Max_cycle;Signal;HPM_P1;HPM_P2
2022/01/20 00:03:21;;;;;;;6.18;3.60;;;;;;;;;;4898913;29;20395;-80
2022/01/20 00:27:15;;;;;;;6.05;2.60;;;;;;;;;;4896712;29;20040;-81
2022/01/20 00:32:47;;;;;;;5.82;3.08;;;;;;;;;;4898386;29;20507;-79
2022/01/20 00:35:23;;;;;;;6.38;2.70;;;;;;;;;;4897030;29;20469;-82
2022/01/20 00:37:49;;;;;;;5.20;2.78;;;;;;;;;;4898495;29;20036;-80
2022/01/20 00:40:15;;;;;;;8.48;4.43;;;;;;;;;;4881018;29;20045;-80
2022/01/20 00:42:41;;;;;;;5.88;3.80;;;;;;;;;;4898252;29;20040;-79
2022/01/20 00:45:08;;;;;;;5.20;3.50;;;;;;;;;;4897842;29;20107;-80
2022/01/20 00:47:34;;;;;;;5.60;4.28;;;;;;;;;;4881635;29;20032;-82
2022/01/20 00:49:59;;;;;;;4.05;2.55;;;;;;;;;;4897884;29;20028;-82
2022/01/20 00:52:25;;;;;;;4.15;2.67;;;;;;;;;;4897955;29;20115;-81
2022/01/20 00:54:50;;;;;;;4.72;2.13;;;;;;;;;;4897472;29;20528;-79
2022/01/20 00:57:16;;;;;;;4.45;2.60;;;;;;;;;;4897822;29;20044;-79
2022/01/20 00:59:42;;;;;;;5.60;3.10;;;;;;;;;;4897623;29;20071;-80
2022/01/20 01:02:10;;;;;;;6.05;2.92;;;;;;;;;;4898027;29;20064;-81
2022/01/20 01:04:36;;;;;;;3.78;2.58;;;;;;;;;;4896147;29;20032;-79
2022/01/20 01:09:31;;;;;;;4.95;2.45;;;;;;;;;;4897261;29;20051;-78
2022/01/20 01:12:01;;;;;;;3.10;2.20;;;;;;;;;;4878955;29;20044;-79
2022/01/20 01:14:29;;;;;;;7.72;2.65;;;;;;;;;;4896550;29;20021;-80
2022/01/20 01:24:39;;;;;;;3.72;2.15;;;;;;;;;;4897186;29;20040;-81
2022/01/20 01:27:07;;;;;;;6.28;2.63;;;;;;;;;;4896580;29;20036;-81
2022/01/20 01:35:33;;;;;;;8.05;2.47;;;;;;;;;;4857909;29;20076;-80
2022/01/20 01:40:32;;;;;;;3.85;2.17;;;;;;;;;;4877847;29;20378;-79
2022/01/20 01:43:01;;;;;;;3.60;2.00;;;;;;;;;;4876793;29;20029;-81
2022/01/20 01:45:30;;;;;;;4.95;2.47;;;;;;;;;;4859666;29;20061;-80
2022/01/20 01:47:57;;;;;;;2.35;1.73;;;;;;;;;;4876772;29;20033;-79
2022/01/20 01:50:23;;;;;;;3.53;2.10;;;;;;;;;;4876657;29;20037;-78
2022/01/20 01:52:50;;;;;;;4.00;2.60;;;;;;;;;;4876632;29;20486;-78
2022/01/20 01:55:16;;;;;;;6.45;2.63;;;;;;;;;;4877175;29;20096;-78
2022/01/20 01:57:41;;;;;;;2.08;1.52;;;;;;;;;;4860392;29;20033;-78
2022/01/20 02:00:10;;;;;;;3.75;1.90;;;;;;;;;;4877492;29;20033;-79
2022/01/20 02:02:36;;;;;;;2.33;1.70;;;;;;;;;;4877526;29;20065;-78
2022/01/20 02:05:05;;;;;;;5.93;2.30;;;;;;;;;;4876854;29;20827;-80
2022/01/20 02:21:01;;;;;;;5.85;2.78;;;;;;;;;;4876943;29;20056;-80
2022/01/20 02:23:27;;;;;;;4.40;2.53;;;;;;;;;;4877143;29;20037;-83
2022/01/20 02:25:53;;;;;;;3.92;2.72;;;;;;;;;;4877238;29;20032;-79
2022/01/20 02:28:19;;;;;;;5.55;2.35;;;;;;;;;;4876981;29;20045;-81
2022/01/20 02:30:44;;;;;;;4.15;2.22;;;;;;;;;;4860047;29;20032;-79
2022/01/20 02:33:13;;;;;;;8.77;3.40;;;;;;;;;;4888952;29;20058;-80
2022/01/20 02:35:43;;;;;;;7.15;3.30;;;;;;;;;;4878842;29;20041;-79
2022/01/20 02:38:15;;;;;;;4.22;2.97;;;;;;;;;;4895417;29;20056;-80
2022/01/20 02:45:57;;;;;;;3.45;2.50;;;;;;;;;;4894774;29;20039;-80
2022/01/20 02:48:23;;;;;;;4.43;2.92;;;;;;;;;;4896248;29;20735;-81
2022/01/20 02:50:49;;;;;;;5.93;2.53;;;;;;;;;;4894922;29;20126;-79
2022/01/20 02:53:15;;;;;;;3.50;2.67;;;;;;;;;;4896046;29;20029;-81
2022/01/20 02:55:40;;;;;;;4.95;2.67;;;;;;;;;;4879211;29;20028;-79
2022/01/20 02:58:07;;;;;;;4.75;2.38;;;;;;;;;;4896084;29;20048;-80
2022/01/20 03:00:34;;;;;;;5.32;1.85;;;;;;;;;;4893130;29;20446;-81
2022/01/20 03:03:01;;;;;;;3.28;2.25;;;;;;;;;;4896199;29;20484;-81
2022/01/20 03:05:27;;;;;;;3.38;2.38;;;;;;;;;;4895724;29;20068;-79
2022/01/20 03:07:52;;;;;;;6.65;3.40;;;;;;;;;;4895882;29;20063;-80
2022/01/20 03:10:18;;;;;;;7.30;3.33;;;;;;;;;;4895563;29;20040;-80
2022/01/20 03:12:44;;;;;;;5.93;2.17;;;;;;;;;;4895767;29;20124;-79
2022/01/20 03:15:09;;;;;;;3.85;2.38;;;;;;;;;;4895614;29;20497;-79
2022/01/20 03:17:35;;;;;;;6.32;3.15;;;;;;;;;;4895801;29;20059;-79
2022/01/20 03:20:00;;;;;;;6.68;2.80;;;;;;;;;;4895247;29;20426;-80
2022/01/20 03:22:26;;;;;;;5.22;3.42;;;;;;;;;;4895838;29;20152;-80
2022/01/20 03:24:52;;;;;;;6.30;3.38;;;;;;;;;;4895516;29;20037;-81
2022/01/20 03:27:17;;;;;;;4.32;2.53;;;;;;;;;;4895675;29;20041;-79
2022/01/20 03:29:43;;;;;;;5.60;3.60;;;;;;;;;;4895366;29;20024;-80
2022/01/20 03:32:08;;;;;;;7.22;2.95;;;;;;;;;;4895657;29;20083;-80
2022/01/20 03:34:34;;;;;;;7.20;4.00;;;;;;;;;;4895569;29;20036;-81
2022/01/20 03:37:04;;;;;;;3.97;2.28;;;;;;;;;;4894642;29;20047;-79
2022/01/20 03:39:30;;;;;;;4.68;3.00;;;;;;;;;;4896044;29;20049;-79
2022/01/20 03:41:56;;;;;;;7.55;3.67;;;;;;;;;;4895961;29;20039;-80
2022/01/20 03:44:21;;;;;;;8.85;3.45;;;;;;;;;;4896587;29;20115;-80
2022/01/20 03:46:47;;;;;;;5.55;2.95;;;;;;;;;;4896078;29;20108;-80
2022/01/20 03:49:26;;;;;;;7.53;3.20;;;;;;;;;;4896814;29;20115;-79
2022/01/20 03:51:52;;;;;;;10.02;4.38;;;;;;;;;;4897777;29;20111;-79
2022/01/20 03:54:18;;;;;;;4.80;2.97;;;;;;;;;;4899276;29;20087;-78
2022/01/20 03:56:43;;;;;;;6.15;2.85;;;;;;;;;;4898580;29;20469;-79
2022/01/20 03:59:09;;;;;;;7.90;3.58;;;;;;;;;;4899487;29;20040;-80
2022/01/20 04:01:34;;;;;;;5.43;3.45;;;;;;;;;;4898925;29;20115;-80
2022/01/20 04:04:00;;;;;;;8.30;3.88;;;;;;;;;;4899460;29;20036;-79
2022/01/20 04:06:27;;;;;;;9.25;5.65;;;;;;;;;;4899627;29;20084;-81
2022/01/20 04:08:54;;;;;;;5.35;3.28;;;;;;;;;;4899319;29;20034;-79
2022/01/20 04:11:22;;;;;;;6.35;2.65;;;;;;;;;;4899263;29;20177;-80
2022/01/20 04:13:48;;;;;;;6.28;3.38;;;;;;;;;;4899512;29;20063;-79
2022/01/20 04:16:18;;;;;;;7.15;2.53;;;;;;;;;;4898596;29;20059;-79
2022/01/20 04:18:56;;;;;;;6.90;3.22;;;;;;;;;;4899017;29;20040;-79
2022/01/20 04:21:25;;;;;;;7.32;3.42;;;;;;;;;;4897234;29;20752;-79
2022/01/20 04:23:51;;;;;;;6.25;3.72;;;;;;;;;;4896971;29;20368;-79
2022/01/20 04:26:20;;;;;;;6.50;3.83;;;;;;;;;;4898540;29;20417;-80
2022/01/20 04:28:46;;;;;;;2.10;1.83;;;;;;;;;;4898789;29;20043;-79
2022/01/20 04:31:12;;;;;;;5.82;3.03;;;;;;;;;;4898592;29;20037;-80
2022/01/20 04:33:37;;;;;;;4.30;2.65;;;;;;;;;;4898388;29;20120;-78
2022/01/20 04:36:05;;;;;;;5.55;3.10;;;;;;;;;;4898506;29;20032;-81
2022/01/20 04:38:30;;;;;;;6.90;3.88;;;;;;;;;;4881137;29;20115;-80
2022/01/20 04:40:56;;;;;;;6.28;2.78;;;;;;;;;;4897599;29;20115;-79
2022/01/20 04:43:21;;;;;;;5.63;3.45;;;;;;;;;;4898373;29;20090;-79
2022/01/20 04:45:55;;;;;;;9.10;5.82;;;;;;;;;;4897700;29;20096;-78
2022/01/20 04:48:30;;;;;;;4.75;2.80;;;;;;;;;;4898750;29;20039;-80
2022/01/20 04:59:07;;;;;;;4.63;2.70;;;;;;;;;;4896440;29;20040;-79
2022/01/20 05:01:34;;;;;;;7.03;3.92;;;;;;;;;;4897898;29;20025;-81
2022/01/20 05:04:02;;;;;;;8.07;4.88;;;;;;;;;;4897187;29;20036;-78
2022/01/20 05:06:27;;;;;;;6.40;3.00;;;;;;;;;;4897690;29;20108;-80
2022/01/20 05:08:53;;;;;;;5.68;2.83;;;;;;;;;;4897712;29;20135;-79
2022/01/20 05:11:19;;;;;;;3.22;2.60;;;;;;;;;;4898195;29;20041;-79
2022/01/20 05:13:45;;;;;;;4.15;3.13;;;;;;;;;;4897873;29;20686;-80
2022/01/20 05:16:10;;;;;;;7.85;3.63;;;;;;;;;;4897404;29;20031;-78
2022/01/20 05:18:36;;;;;;;3.15;1.95;;;;;;;;;;4897553;29;20055;-78
2022/01/20 05:21:02;;;;;;;9.68;4.25;;;;;;;;;;4897690;29;20036;-79
2022/01/20 05:23:27;;;;;;;9.00;4.63;;;;;;;;;;4897216;29;20024;-79
2022/01/20 05:25:53;;;;;;;19.55;8.38;;;;;;;;;;4880784;29;20036;-79
2022/01/20 05:28:19;;;;;;;9.82;5.10;;;;;;;;;;4897513;29;20029;-79
2022/01/20 05:30:44;;;;;;;6.30;3.47;;;;;;;;;;4897261;29;20037;-78
2022/01/20 05:33:10;;;;;;;7.78;3.00;;;;;;;;;;4896154;29;20108;-79
2022/01/20 05:35:36;;;;;;;3.20;2.53;;;;;;;;;;4895065;29;20457;-78
2022/01/20 05:38:01;;;;;;;10.63;2.70;;;;;;;;;;4897273;29;20100;-80
2022/01/20 05:40:27;;;;;;;4.80;2.90;;;;;;;;;;4879572;29;20028;-77
2022/01/20 05:42:55;;;;;;;6.25;3.38;;;;;;;;;;4880726;29;20043;-79
2022/01/20 05:45:22;;;;;;;5.18;2.83;;;;;;;;;;4897082;29;20028;-78
2022/01/20 05:47:49;;;;;;;5.07;2.97;;;;;;;;;;4897469;29;20060;-80
2022/01/20 05:50:22;;;;;;;6.25;3.00;;;;;;;;;;4896631;29;20028;-78
2022/01/20 05:52:48;;;;;;;4.70;3.10;;;;;;;;;;4895171;29;20515;-80
2022/01/20 05:55:20;;;;;;;4.43;3.00;;;;;;;;;;4895286;29;20063;-80
2022/01/20 05:57:46;;;;;;;11.32;6.00;;;;;;;;;;4896830;29;20036;-79
2022/01/20 06:00:16;;;;;;;13.20;5.30;;;;;;;;;;4896835;29;20093;-80
2022/01/20 06:05:26;;;;;;;6.60;4.22;;;;;;;;;;4896905;29;20404;-80
2022/01/20 06:07:51;;;;;;;8.18;4.57;;;;;;;;;;4880126;29;20033;-79
2022/01/20 06:10:17;;;;;;;8.88;4.93;;;;;;;;;;4895259;29;20115;-78
2022/01/20 06:12:43;;;;;;;11.68;4.60;;;;;;;;;;4896037;29;20039;-80
2022/01/20 06:15:10;;;;;;;6.93;4.15;;;;;;;;;;4878034;29;20035;-78
2022/01/20 06:17:37;;;;;;;7.60;4.53;;;;;;;;;;4895253;29;20028;-79
2022/01/20 06:20:05;;;;;;;9.02;3.95;;;;;;;;;;4895822;29;20043;-78
2022/01/20 06:22:30;;;;;;;9.45;5.07;;;;;;;;;;4895064;29;20029;-80
2022/01/20 06:24:56;;;;;;;11.20;4.57;;;;;;;;;;4896430;29;20088;-79
2022/01/20 06:27:21;;;;;;;8.98;5.95;;;;;;;;;;4895011;29;20114;-78
2022/01/20 06:29:47;;;;;;;10.85;6.50;;;;;;;;;;4895655;29;20040;-78
2022/01/20 06:32:12;;;;;;;15.15;6.97;;;;;;;;;;4896011;29;20060;-79
2022/01/20 06:34:38;;;;;;;11.02;7.03;;;;;;;;;;4895210;29;20479;-79
2022/01/20 06:37:03;;;;;;;9.77;5.72;;;;;;;;;;4879046;29;20108;-78
2022/01/20 06:39:29;;;;;;;9.13;6.75;;;;;;;;;;4890607;29;20036;-78
2022/01/20 06:41:54;;;;;;;17.20;7.20;;;;;;;;;;4895584;29;20110;-79
2022/01/20 06:44:21;;;;;;;10.40;5.97;;;;;;;;;;4888971;29;20041;-80
2022/01/20 06:46:48;;;;;;;10.32;6.53;;;;;;;;;;4889548;29;20062;-79
2022/01/20 06:49:14;;;;;;;10.00;6.20;;;;;;;;;;4888499;29;20123;-78
2022/01/20 06:51:40;;;;;;;14.23;6.85;;;;;;;;;;4894950;29;20067;-78
2022/01/20 06:54:06;;;;;;;10.18;6.20;;;;;;;;;;4895388;29;20160;-79
2022/01/20 06:56:32;;;;;;;9.48;6.43;;;;;;;;;;4895465;29;20095;-79
2022/01/20 06:58:58;;;;;;;14.55;7.45;;;;;;;;;;4871314;29;20137;-78
2022/01/20 07:01:24;;;;;;;11.23;6.57;;;;;;;;;;4895235;29;20040;-79
2022/01/20 07:03:49;;;;;;;12.77;7.25;;;;;;;;;;4894953;29;20385;-78
2022/01/20 07:06:15;;;;;;;15.00;7.47;;;;;;;;;;4895101;29;20050;-78
2022/01/20 07:08:40;;;;;;;12.68;7.00;;;;;;;;;;4894188;29;20080;-79
2022/01/20 07:11:06;;;;;;;15.73;6.65;;;;;;;;;;4895256;29;20038;-78
2022/01/20 07:13:31;;;;;;;15.20;8.82;;;;;;;;;;4895482;29;20032;-77
2022/01/20 07:15:57;;;;;;;14.57;7.82;;;;;;;;;;4895179;29;20441;-78
2022/01/20 07:18:22;;;;;;;16.30;8.98;;;;;;;;;;4893549;29;20713;-79
2022/01/20 07:20:48;;;;;;;12.45;7.90;;;;;;;;;;4895003;29;20092;-78
2022/01/20 07:23:13;;;;;;;14.65;7.40;;;;;;;;;;4895277;29;20499;-80
2022/01/20 07:25:39;;;;;;;13.80;7.53;;;;;;;;;;4898452;29;20037;-81
2022/01/20 07:28:05;;;;;;;15.35;7.20;;;;;;;;;;4897782;29;20040;-77
2022/01/20 07:30:30;;;;;;;12.60;7.50;;;;;;;;;;4898914;29;20031;-80
2022/01/20 07:32:57;;;;;;;9.63;5.60;;;;;;;;;;4899103;29;20052;-80
2022/01/20 07:35:22;;;;;;;13.55;6.32;;;;;;;;;;4898754;29;20036;-80
2022/01/20 07:37:48;;;;;;;12.23;6.97;;;;;;;;;;4899075;29;20037;-80
2022/01/20 07:40:14;;;;;;;9.07;6.47;;;;;;;;;;4898338;29;20036;-80
2022/01/20 07:42:40;;;;;;;8.70;5.88;;;;;;;;;;4898652;29;20103;-81
2022/01/20 07:45:06;;;;;;;16.17;7.50;;;;;;;;;;4881160;29;20576;-79
2022/01/20 07:47:32;;;;;;;15.68;6.85;;;;;;;;;;4882201;29;20032;-80
2022/01/20 07:49:57;;;;;;;12.25;6.53;;;;;;;;;;4897571;29;20059;-80
2022/01/20 07:52:22;;;;;;;12.35;6.70;;;;;;;;;;4898989;29;20028;-79
2022/01/20 07:54:48;;;;;;;8.55;6.30;;;;;;;;;;4898243;29;20040;-79
2022/01/20 07:57:13;;;;;;;20.67;8.15;;;;;;;;;;4898932;29;20029;-79
2022/01/20 07:59:39;;;;;;;24.08;8.98;;;;;;;;;;4898858;29;20401;-78
2022/01/20 08:02:05;;;;;;;14.75;6.95;;;;;;;;;;4898639;29;20033;-79
2022/01/20 08:04:30;;;;;;;22.65;10.15;;;;;;;;;;4898752;29;20032;-78
2022/01/20 08:06:56;;;;;;;14.63;6.10;;;;;;;;;;4898480;29;20093;-78
2022/01/20 08:09:23;;;;;;;13.25;6.68;;;;;;;;;;4898560;29;20029;-78
2022/01/20 08:11:49;;;;;;;16.77;7.38;;;;;;;;;;4898375;29;20461;-78
2022/01/20 08:14:15;;;;;;;11.40;5.97;;;;;;;;;;4897487;29;20164;-77
2022/01/20 08:16:40;;;;;;;15.00;7.72;;;;;;;;;;4898270;29;20536;-77
2022/01/20 08:19:06;;;;;;;22.60;9.63;;;;;;;;;;4898135;29;20040;-78
2022/01/20 08:21:32;;;;;;;77.70;35.33;;;;;;;;;;4898254;29;20479;-79
2022/01/20 08:23:57;;;;;;;16.83;7.95;;;;;;;;;;4894538;29;20037;-79
2022/01/20 08:26:23;;;;;;;11.73;5.72;;;;;;;;;;4894409;29;20107;-78
2022/01/20 08:28:48;;;;;;;12.50;6.60;;;;;;;;;;4897402;29;20043;-79
2022/01/20 08:31:14;;;;;;;11.57;6.70;;;;;;;;;;4882556;29;20176;-79
2022/01/20 08:33:40;;;;;;;16.23;6.43;;;;;;;;;;4896008;29;20499;-80
2022/01/20 08:36:06;;;;;;;12.98;5.80;;;;;;;;;;4897267;29;20111;-79
2022/01/20 08:38:31;;;;;;;14.75;6.53;;;;;;;;;;4897472;29;20461;-78
2022/01/20 08:40:57;;;;;;;12.73;7.55;;;;;;;;;;4897135;29;20044;-80
2022/01/20 08:43:23;;;;;;;18.65;7.28;;;;;;;;;;4896912;29;20036;-78
2022/01/20 08:45:48;;;;;;;9.20;5.88;;;;;;;;;;4879942;29;20112;-80
2022/01/20 08:48:14;;;;;;;14.40;6.47;;;;;;;;;;4897269;29;20024;-79
2022/01/20 08:50:41;;;;;;;20.00;7.07;;;;;;;;;;4897309;29;20036;-79
2022/01/20 08:53:08;;;;;;;10.23;6.35;;;;;;;;;;4897712;29;20119;-79
2022/01/20 08:55:34;;;;;;;11.38;6.97;;;;;;;;;;4895072;29;20075;-80
2022/01/20 08:58:00;;;;;;;16.38;6.90;;;;;;;;;;4895200;29;20048;-78
2022/01/20 09:00:31;;;;;;;14.82;6.63;;;;;;;;;;4895333;29;20044;-79
2022/01/20 09:02:56;;;;;;;17.35;6.50;;;;;;;;;;4895336;29;20037;-78
2022/01/20 09:05:23;;;;;;;15.90;6.60;;;;;;;;;;4896233;29;20060;-79
2022/01/20 09:07:48;;;;;;;13.00;6.55;;;;;;;;;;4895986;29;20084;-78
2022/01/20 09:10:19;;;;;;;13.95;6.93;;;;;;;;;;4896041;29;20110;-79
2022/01/20 09:15:28;;;;;;;11.40;6.38;;;;;;;;;;4896890;29;20032;-81
2022/01/20 09:18:06;;;;;;;15.20;6.70;;;;;;;;;;4894097;29;20044;-77
2022/01/20 09:20:32;;;;;;;11.43;6.22;;;;;;;;;;4895844;29;20510;-79
2022/01/20 09:22:58;;;;;;;13.95;7.43;;;;;;;;;;4894888;29;20033;-79
2022/01/20 09:25:25;;;;;;;16.65;7.15;;;;;;;;;;4894113;29;20044;-79
2022/01/20 09:27:51;;;;;;;31.95;11.27;;;;;;;;;;4896456;29;20036;-78
2022/01/20 09:30:19;;;;;;;23.80;10.50;;;;;;;;;;4879302;29;20037;-78
2022/01/20 09:33:01;;;;;;;44.22;19.88;;;;;;;;;;4894288;29;20063;-79
2022/01/20 09:35:31;;;;;;;26.67;12.50;;;;;;;;;;4894975;29;20040;-78
2022/01/20 09:37:56;;;;;;;38.33;20.95;;;;;;;;;;4896581;29;20866;-80
2022/01/20 09:40:22;;;;;;;23.83;9.40;;;;;;;;;;4896025;29;20079;-78
2022/01/20 09:42:48;;;;;;;18.13;7.43;;;;;;;;;;4895541;29;20032;-78
2022/01/20 09:45:14;;;;;;;13.23;7.90;;;;;;;;;;4896550;29;20033;-78
2022/01/20 09:47:45;;;;;;;19.80;8.10;;;;;;;;;;4896139;29;20032;-78
2022/01/20 09:50:15;;;;;;;18.48;8.80;;;;;;;;;;4894899;29;20036;-78
2022/01/20 09:52:41;;;;;;;17.08;9.38;;;;;;;;;;4895879;29;20453;-78
2022/01/20 09:55:08;;;;;;;21.23;10.68;;;;;;;;;;4895698;29;20111;-78
2022/01/20 09:57:33;;;;;;;22.42;10.32;;;;;;;;;;4896201;29;20464;-78
2022/01/20 10:00:00;;;;;;;19.88;10.27;;;;;;;;;;4895439;29;20044;-78
2022/01/20 10:02:25;;;;;;;20.45;9.57;;;;;;;;;;4896068;29;20120;-79
2022/01/20 10:04:52;;;;;;;19.63;9.55;;;;;;;;;;4895003;29;20115;-78
2022/01/20 10:07:18;;;;;;;21.88;9.48;;;;;;;;;;4895368;29;20032;-80
2022/01/20 10:09:47;;;;;;;23.20;11.85;;;;;;;;;;4895499;29;20108;-78
2022/01/20 10:12:18;;;;;;;23.87;10.47;;;;;;;;;;4895858;29;20032;-81
2022/01/20 10:14:53;;;;;;;18.88;10.13;;;;;;;;;;4895165;29;20020;-78
2022/01/20 10:17:23;;;;;;;21.02;12.90;;;;;;;;;;4878114;29;20029;-79
2022/01/20 10:19:53;;;;;;;23.83;10.00;;;;;;;;;;4894540;29;20029;-79
2022/01/20 10:22:24;;;;;;;21.55;10.77;;;;;;;;;;4894525;29;20036;-79
2022/01/20 10:25:08;;;;;;;22.25;9.50;;;;;;;;;;4895156;29;20060;-79
2022/01/20 10:27:45;;;;;;;17.27;9.85;;;;;;;;;;4895614;29;20033;-80
2022/01/20 10:30:12;;;;;;;29.05;12.18;;;;;;;;;;4894707;29;20044;-79
2022/01/20 10:32:51;;;;;;;17.10;10.18;;;;;;;;;;4895661;29;20044;-80
2022/01/20 10:35:25;;;;;;;18.48;9.75;;;;;;;;;;4894879;29;20028;-78
2022/01/20 10:38:11;;;;;;;26.83;11.85;;;;;;;;;;4895056;29;20092;-79
2022/01/20 10:40:50;;;;;;;18.95;9.77;;;;;;;;;;4893662;29;20072;-79
2022/01/20 10:43:25;;;;;;;20.83;11.43;;;;;;;;;;4894578;29;20036;-79
2022/01/20 10:46:06;;;;;;;19.65;10.55;;;;;;;;;;4878480;29;20044;-79
2022/01/20 10:48:32;;;;;;;21.05;9.90;;;;;;;;;;4894224;29;20028;-83
2022/01/20 10:50:58;;;;;;;18.48;10.85;;;;;;;;;;4895318;29;20029;-79
2022/01/20 10:53:24;;;;;;;32.05;15.82;;;;;;;;;;4894522;29;20032;-79
2022/01/20 10:55:51;;;;;;;23.20;11.85;;;;;;;;;;4894888;29;20422;-81
2022/01/20 10:58:23;;;;;;;31.10;16.45;;;;;;;;;;4895188;29;20042;-78
2022/01/20 11:00:52;;;;;;;20.85;10.30;;;;;;;;;;4893653;29;20084;-80
2022/01/20 11:03:19;;;;;;;16.40;9.07;;;;;;;;;;4894325;29;20027;-79
2022/01/20 11:05:50;;;;;;;19.70;9.52;;;;;;;;;;4895154;29;20473;-77
2022/01/20 11:08:16;;;;;;;23.55;11.57;;;;;;;;;;4895480;29;20135;-78
2022/01/20 11:10:42;;;;;;;22.70;10.32;;;;;;;;;;4894289;29;20536;-79
2022/01/20 11:13:10;;;;;;;25.27;10.90;;;;;;;;;;4895280;29;20024;-78
2022/01/20 11:15:36;;;;;;;17.83;9.75;;;;;;;;;;4894534;29;20553;-77
2022/01/20 11:18:02;;;;;;;19.90;9.45;;;;;;;;;;4893804;29;20115;-79
2022/01/20 11:20:32;;;;;;;24.55;11.23;;;;;;;;;;4894832;29;20418;-78
2022/01/20 11:23:07;;;;;;;23.27;10.88;;;;;;;;;;4894602;29;20067;-79
2022/01/20 11:25:38;;;;;;;23.67;10.40;;;;;;;;;;4877935;29;20511;-79
2022/01/20 11:28:09;;;;;;;29.65;10.77;;;;;;;;;;4894225;29;20032;-78
2022/01/20 11:30:39;;;;;;;26.45;11.35;;;;;;;;;;4893314;29;20278;-79
2022/01/20 11:33:18;;;;;;;20.17;11.15;;;;;;;;;;4895125;29;20400;-79
2022/01/20 11:35:54;;;;;;;22.75;12.15;;;;;;;;;;4895688;29;20068;-78
2022/01/20 11:38:22;;;;;;;31.05;11.48;;;;;;;;;;4895218;29;20028;-80
2022/01/20 11:41:00;;;;;;;30.67;10.50;;;;;;;;;;4895171;29;20029;-80
2022/01/20 11:43:33;;;;;;;24.05;9.63;;;;;;;;;;4895001;29;20093;-78
2022/01/20 11:46:10;;;;;;;16.42;8.15;;;;;;;;;;4892860;29;20020;-79
2022/01/20 11:48:35;;;;;;;17.27;8.27;;;;;;;;;;4892293;29;20024;-80
2022/01/20 11:51:08;;;;;;;18.10;7.68;;;;;;;;;;4895589;29;20029;-79
2022/01/20 11:53:41;;;;;;;15.98;9.13;;;;;;;;;;4895483;29;20389;-79
2022/01/20 11:56:08;;;;;;;36.55;18.42;;;;;;;;;;4895108;29;20033;-78
2022/01/20 11:58:34;;;;;;;23.52;11.93;;;;;;;;;;4895521;29;20040;-80
2022/01/20 12:01:07;;;;;;;19.73;10.85;;;;;;;;;;4894974;29;20020;-80
2022/01/20 12:03:35;;;;;;;24.33;9.60;;;;;;;;;;4895701;29;20028;-77
2022/01/20 12:06:14;;;;;;;12.88;7.28;;;;;;;;;;4893012;29;20115;-80
2022/01/20 12:09:26;;;;;;;13.82;6.90;;;;;;;;;;4893576;29;20503;-78
2022/01/20 12:11:52;;;;;;;7.13;3.60;;;;;;;;;;4814741;29;20031;-78
2022/01/20 12:14:34;;;;;;;7.90;3.70;;;;;;;;;;4888265;29;20519;-79
2022/01/20 12:17:15;;;;;;;9.63;4.18;;;;;;;;;;4898502;29;20136;-80
2022/01/20 12:19:42;;;;;;;8.32;3.90;;;;;;;;;;4896915;29;20024;-80
2022/01/20 12:22:09;;;;;;;11.98;5.47;;;;;;;;;;4898554;29;20028;-80
2022/01/20 12:24:36;;;;;;;17.27;8.85;;;;;;;;;;4898007;29;20024;-79
2022/01/20 12:27:13;;;;;;;9.05;4.10;;;;;;;;;;4897172;29;20032;-78
2022/01/20 12:29:38;;;;;;;8.35;3.47;;;;;;;;;;4895577;29;20111;-80
2022/01/20 12:32:15;;;;;;;7.38;2.85;;;;;;;;;;4897820;29;20499;-78
2022/01/20 12:34:41;;;;;;;6.70;2.88;;;;;;;;;;4896642;29;20119;-81
2022/01/20 12:37:07;;;;;;;7.90;3.85;;;;;;;;;;4898121;29;20116;-80
2022/01/20 12:39:36;;;;;;;8.52;3.13;;;;;;;;;;4897501;29;20033;-78
2022/01/20 12:42:05;;;;;;;5.68;2.75;;;;;;;;;;4897989;29;20393;-80
2022/01/20 12:45:03;;;;;;;5.65;3.17;;;;;;;;;;4898102;29;20028;-79
2022/01/20 12:47:30;;;;;;;8.43;3.00;;;;;;;;;;4897789;29;20484;-82
2022/01/20 12:49:58;;;;;;;7.43;3.38;;;;;;;;;;4897300;29;20446;-80
2022/01/20 12:52:24;;;;;;;9.18;3.75;;;;;;;;;;4897812;29;20410;-79
2022/01/20 12:54:50;;;;;;;7.40;3.95;;;;;;;;;;4895971;29;20063;-78
2022/01/20 12:57:16;;;;;;;3.97;2.70;;;;;;;;;;4896543;29;20039;-81
2022/01/20 12:59:44;;;;;;;4.82;3.20;;;;;;;;;;4897281;29;20100;-79
2022/01/20 13:02:13;;;;;;;7.15;2.97;;;;;;;;;;4897441;29;20071;-79
2022/01/20 13:04:39;;;;;;;13.90;3.00;;;;;;;;;;4880181;29;20393;-78
2022/01/20 13:07:09;;;;;;;5.82;3.13;;;;;;;;;;4897353;29;20485;-79
2022/01/20 13:09:46;;;;;;;5.47;3.67;;;;;;;;;;4897414;29;20017;-80
2022/01/20 13:12:13;;;;;;;6.55;3.05;;;;;;;;;;4897357;29;20499;-78
2022/01/20 13:14:42;;;;;;;5.55;3.63;;;;;;;;;;4896714;29;20492;-79
2022/01/20 13:17:09;;;;;;;10.95;5.20;;;;;;;;;;4895751;29;20476;-78
2022/01/20 13:19:36;;;;;;;6.88;3.47;;;;;;;;;;4878483;29;20044;-77
2022/01/20 13:22:04;;;;;;;8.68;3.75;;;;;;;;;;4896738;29;20055;-80
2022/01/20 13:24:31;;;;;;;11.02;3.40;;;;;;;;;;4895565;29;20032;-78
2022/01/20 13:26:58;;;;;;;7.60;3.28;;;;;;;;;;4896727;29;20036;-79
2022/01/20 13:29:25;;;;;;;6.32;3.95;;;;;;;;;;4896545;29;20036;-78
2022/01/20 13:31:55;;;;;;;10.30;4.40;;;;;;;;;;4897294;29;20393;-78
2022/01/20 13:34:21;;;;;;;10.25;4.97;;;;;;;;;;4879201;29;20059;-80
2022/01/20 13:36:52;;;;;;;8.65;3.85;;;;;;;;;;4883199;29;20040;-79
2022/01/20 13:39:28;;;;;;;9.70;3.65;;;;;;;;;;4897056;29;20092;-78
2022/01/20 13:42:30;;;;;;;7.35;4.68;;;;;;;;;;4893608;29;20438;-81
2022/01/20 13:45:15;;;;;;;14.27;6.15;;;;;;;;;;4872767;29;20063;-79
2022/01/20 13:47:48;;;;;;;12.07;6.65;;;;;;;;;;4894832;29;20537;-79
2022/01/20 13:50:18;;;;;;;11.88;5.65;;;;;;;;;;4896775;29;21025;-79
2022/01/20 13:52:44;;;;;;;5.03;3.13;;;;;;;;;;4897212;29;20437;-77
2022/01/20 13:55:31;;;;;;;7.80;4.25;;;;;;;;;;4896215;29;20032;-78
2022/01/20 13:57:59;;;;;;;15.63;7.03;;;;;;;;;;4879408;29;20036;-79
2022/01/20 14:00:28;;;;;;;14.70;6.35;;;;;;;;;;4895901;29;20032;-78
2022/01/20 14:02:54;;;;;;;18.25;5.82;;;;;;;;;;4893366;29;20028;-79
2022/01/20 14:05:28;;;;;;;6.90;3.60;;;;;;;;;;4895509;29;20068;-78
2022/01/20 14:07:54;;;;;;;8.95;4.88;;;;;;;;;;4893831;29;20028;-79
2022/01/20 14:10:19;;;;;;;6.65;2.72;;;;;;;;;;4896425;29;20376;-78
2022/01/20 14:12:46;;;;;;;4.50;2.63;;;;;;;;;;4879276;29;20055;-79
2022/01/20 14:15:12;;;;;;;4.82;2.30;;;;;;;;;;4896109;29;20048;-79
2022/01/20 14:17:38;;;;;;;4.78;2.40;;;;;;;;;;4896312;29;20020;-78
2022/01/20 14:20:08;;;;;;;4.28;2.03;;;;;;;;;;4895943;29;20086;-78
2022/01/20 14:22:34;;;;;;;4.80;2.40;;;;;;;;;;4896201;29;20032;-78
2022/01/20 14:24:59;;;;;;;6.20;2.45;;;;;;;;;;4893076;29;20033;-80
2022/01/20 14:27:25;;;;;;;5.50;2.00;;;;;;;;;;4892903;29;20054;-78
2022/01/20 14:29:50;;;;;;;5.40;2.67;;;;;;;;;;4891646;29;20065;-79
2022/01/20 14:32:16;;;;;;;4.93;2.50;;;;;;;;;;4895472;29;20056;-78
2022/01/20 14:34:42;;;;;;;2.80;1.60;;;;;;;;;;4895467;29;20032;-78
2022/01/20 14:37:09;;;;;;;2.75;1.50;;;;;;;;;;4895688;29;20039;-78
2022/01/20 14:39:35;;;;;;;5.47;2.30;;;;;;;;;;4895091;29;20092;-79
2022/01/20 14:42:09;;;;;;;7.60;2.90;;;;;;;;;;4895979;29;20036;-78
2022/01/20 14:44:36;;;;;;;6.38;3.35;;;;;;;;;;4891787;29;20107;-80
2022/01/20 14:47:03;;;;;;;3.50;2.08;;;;;;;;;;4894200;29;20028;-80
2022/01/20 14:49:29;;;;;;;7.47;3.47;;;;;;;;;;4894828;29;20105;-79
2022/01/20 14:51:54;;;;;;;6.40;2.92;;;;;;;;;;4893901;29;20359;-78
2022/01/20 14:54:20;;;;;;;5.18;3.38;;;;;;;;;;4893253;29;20028;-78
2022/01/20 14:56:45;;;;;;;4.07;2.70;;;;;;;;;;4893872;29;20032;-80
2022/01/20 14:59:11;;;;;;;5.57;2.78;;;;;;;;;;4895519;29;20055;-79
2022/01/20 15:01:39;;;;;;;5.65;2.28;;;;;;;;;;4895889;29;20036;-78
2022/01/20 15:04:05;;;;;;;3.22;2.08;;;;;;;;;;4895317;29;20025;-78
2022/01/20 15:06:31;;;;;;;3.08;2.25;;;;;;;;;;4895573;29;20388;-78
2022/01/20 15:08:57;;;;;;;2.83;1.83;;;;;;;;;;4878750;29;20029;-78
2022/01/20 15:11:23;;;;;;;4.55;1.88;;;;;;;;;;4895884;29;20032;-78
2022/01/20 15:13:50;;;;;;;2.88;1.48;;;;;;;;;;4895691;29;20040;-78
2022/01/20 15:16:15;;;;;;;2.25;1.48;;;;;;;;;;4895827;29;20461;-78
2022/01/20 15:18:41;;;;;;;2.97;1.60;;;;;;;;;;4895897;29;20043;-78
2022/01/20 15:21:07;;;;;;;5.00;2.03;;;;;;;;;;4894170;29;20048;-78
2022/01/20 15:23:33;;;;;;;4.45;1.75;;;;;;;;;;4895533;29;20082;-78
2022/01/20 15:25:59;;;;;;;5.25;1.98;;;;;;;;;;4895899;29;20123;-79
2022/01/20 15:28:31;;;;;;;3.40;2.30;;;;;;;;;;4875482;29;20028;-81
2022/01/20 15:30:58;;;;;;;3.47;1.85;;;;;;;;;;4895856;29;20400;-79
2022/01/20 15:33:23;;;;;;;2.50;1.83;;;;;;;;;;4895596;29;20511;-78
2022/01/20 15:35:52;;;;;;;2.95;1.48;;;;;;;;;;4895424;29;20033;-80
2022/01/20 15:38:18;;;;;;;7.68;4.82;;;;;;;;;;4895418;29;20035;-78
2022/01/20 15:40:43;;;;;;;2.88;1.50;;;;;;;;;;4895215;29;20028;-78
2022/01/20 15:43:08;;;;;;;3.22;1.98;;;;;;;;;;4895214;29;20362;-80
2022/01/20 15:45:34;;;;;;;2.75;1.20;;;;;;;;;;4896774;29;20032;-80
2022/01/20 15:47:59;;;;;;;4.43;1.80;;;;;;;;;;4898736;29;20051;-80
2022/01/20 15:50:25;;;;;;;4.85;1.75;;;;;;;;;;4899063;29;20128;-81
2022/01/20 15:52:51;;;;;;;2.47;1.40;;;;;;;;;;4878532;29;20037;-80
2022/01/20 15:55:16;;;;;;;3.67;1.92;;;;;;;;;;4897140;29;20451;-79
2022/01/20 15:57:42;;;;;;;2.50;1.42;;;;;;;;;;4897576;29;20059;-78